Time;durP1;ratioP1;P1;durP2;ratioP2;P2;SDS_P1;SDS_P2;PMS_P1;PMS_P2;Temp;Humidity;BMP_temperature;BMP_pressure;BME280_temperature;BME280_humidity;BME280_pressure;Samples;Min_cycle;Max_cycle;Signal;HPM_P1;HPM_P2
2023/02/07 00:02:12;;;;;;;18.13;7.40;;;0.70;99.90;;;;;;4900214;29;20087;-79
2023/02/07 00:04:39;;;;;;;15.77;6.28;;;0.70;99.90;;;;;;4899118;29;20137;-79
2023/02/07 00:09:36;;;;;;;;;;;0.50;99.90;;;;;;4914554;29;20074;-81
2023/02/07 00:12:03;;;;;;;14.50;7.18;;;0.50;99.90;;;;;;4898964;29;20014;-79
2023/02/07 00:14:30;;;;;;;15.48;7.07;;;0.50;99.90;;;;;;4899360;29;20383;-80
2023/02/07 00:16:57;;;;;;;14.25;6.93;;;0.40;99.90;;;;;;4898994;29;20127;-79
2023/02/07 00:19:23;;;;;;;18.23;7.35;;;0.40;99.90;;;;;;4883538;29;20059;-80
2023/02/07 00:21:50;;;;;;;12.85;7.45;;;0.30;99.90;;;;;;4899926;29;20460;-79
2023/02/07 00:24:17;;;;;;;24.73;7.45;;;0.30;99.90;;;;;;4899049;29;20123;-79
2023/02/07 00:26:46;;;;;;;17.95;7.20;;;0.40;99.90;;;;;;4898686;29;20129;-79
2023/02/07 00:29:12;;;;;;;21.15;6.95;;;0.30;99.90;;;;;;4898155;29;20522;-79
2023/02/07 00:31:39;;;;;;;18.95;8.20;;;0.30;99.90;;;;;;4883375;29;20483;-78
2023/02/07 00:34:06;;;;;;;24.30;8.05;;;0.30;99.90;;;;;;4883357;29;20045;-78
2023/02/07 00:36:36;;;;;;;16.77;7.00;;;0.30;99.90;;;;;;4898836;29;20467;-79
2023/02/07 00:39:02;;;;;;;17.67;7.77;;;0.30;99.90;;;;;;4899604;29;20511;-78
2023/02/07 00:41:29;;;;;;;14.95;6.15;;;0.30;99.90;;;;;;4883407;29;20057;-78
2023/02/07 00:43:56;;;;;;;20.08;7.05;;;0.20;99.90;;;;;;4898073;29;20459;-78
2023/02/07 00:49:08;;;;;;;20.38;8.23;;;0.20;99.90;;;;;;4898841;29;20403;-78
2023/02/07 00:51:35;;;;;;;13.90;5.72;;;0.10;99.90;;;;;;4899543;29;20464;-80
2023/02/07 00:54:02;;;;;;;15.77;7.63;;;0.10;99.90;;;;;;4899862;29;20120;-80
2023/02/07 00:59:14;;;;;;;15.18;6.65;;;0.00;99.90;;;;;;4898592;29;20472;-80
2023/02/07 01:01:41;;;;;;;15.23;5.72;;;0.00;99.90;;;;;;4899546;29;20044;-79
2023/02/07 01:04:08;;;;;;;19.90;6.63;;;0.00;99.90;;;;;;4882353;29;20054;-79
2023/02/07 01:06:35;;;;;;;15.27;7.78;;;0.00;99.90;;;;;;4899323;29;20396;-79
2023/02/07 01:09:02;;;;;;;15.70;7.05;;;-0.10;99.90;;;;;;4897704;29;20480;-80
2023/02/07 01:11:29;;;;;;;13.52;4.78;;;-0.10;99.90;;;;;;4899250;29;20353;-79
2023/02/07 01:13:56;;;;;;;14.38;6.65;;;-0.20;99.90;;;;;;4898625;29;20066;-80
2023/02/07 01:16:24;;;;;;;13.82;5.38;;;-0.20;99.90;;;;;;4898251;29;20384;-79
2023/02/07 01:18:50;;;;;;;12.30;6.40;;;-0.20;99.90;;;;;;4899309;29;20076;-79
2023/02/07 01:21:17;;;;;;;17.27;6.97;;;-0.20;99.90;;;;;;4914558;29;20063;-79
2023/02/07 01:23:44;;;;;;;11.10;5.13;;;-0.20;99.90;;;;;;4898597;29;20045;-80
2023/02/07 01:26:12;;;;;;;16.15;6.45;;;-0.20;99.90;;;;;;4902772;29;20041;-80
2023/02/07 01:28:38;;;;;;;13.40;5.88;;;-0.20;99.90;;;;;;4903397;29;20409;-79
2023/02/07 01:31:05;;;;;;;8.65;5.28;;;-0.30;99.90;;;;;;4885797;29;20072;-79
2023/02/07 01:33:32;;;;;;;14.40;5.95;;;-0.40;99.90;;;;;;4886618;29;20055;-79
2023/02/07 01:35:59;;;;;;;11.43;5.47;;;-0.40;99.90;;;;;;4900918;29;20052;-79
2023/02/07 01:38:29;;;;;;;14.25;6.22;;;-0.40;99.90;;;;;;4903240;29;20044;-79
2023/02/07 01:40:55;;;;;;;14.40;7.32;;;-0.40;99.90;;;;;;4902869;29;20167;-79
2023/02/07 01:43:22;;;;;;;9.38;5.18;;;-0.40;99.90;;;;;;4901164;29;20056;-79
2023/02/07 01:45:49;;;;;;;15.27;6.65;;;-0.50;99.90;;;;;;4917510;29;20045;-80
2023/02/07 01:48:20;;;;;;;14.82;6.90;;;-0.50;99.90;;;;;;4902932;29;20036;-79
2023/02/07 01:50:47;;;;;;;10.05;6.20;;;-0.50;99.90;;;;;;4916863;29;20108;-80
2023/02/07 01:53:14;;;;;;;12.43;5.10;;;-0.50;99.90;;;;;;4917622;29;20536;-81
2023/02/07 01:55:40;;;;;;;9.23;4.95;;;-0.60;99.90;;;;;;4901933;29;20119;-79
2023/02/07 01:58:08;;;;;;;13.15;5.03;;;-0.60;99.90;;;;;;4918206;29;20067;-79
2023/02/07 02:00:35;;;;;;;11.70;5.85;;;-0.60;99.90;;;;;;4901852;29;20499;-80
2023/02/07 02:03:02;;;;;;;10.98;5.30;;;-0.50;99.90;;;;;;4901955;29;20040;-78
2023/02/07 02:05:28;;;;;;;11.60;5.55;;;-0.60;99.90;;;;;;4885718;29;20064;-79
2023/02/07 02:07:56;;;;;;;10.77;5.10;;;-0.60;99.90;;;;;;4902269;29;20365;-79
2023/02/07 02:10:23;;;;;;;11.45;5.20;;;-0.60;99.90;;;;;;4884996;29;20052;-79
2023/02/07 02:12:50;;;;;;;13.55;5.93;;;-0.60;99.90;;;;;;4902260;29;20128;-78
2023/02/07 02:15:17;;;;;;;11.48;5.50;;;-0.60;99.90;;;;;;4902242;29;20076;-79
2023/02/07 02:17:44;;;;;;;15.13;5.30;;;-0.70;99.90;;;;;;4884877;29;20040;-79
2023/02/07 02:20:10;;;;;;;13.00;6.75;;;-0.60;99.90;;;;;;4901223;29;20060;-79
2023/02/07 02:22:37;;;;;;;19.95;6.53;;;-0.60;99.90;;;;;;4900446;29;20652;-79
2023/02/07 02:25:04;;;;;;;14.75;6.93;;;-0.70;99.90;;;;;;4902009;29;20112;-80
2023/02/07 02:27:33;;;;;;;13.32;6.65;;;-0.70;99.90;;;;;;4902185;29;20417;-79
2023/02/07 02:29:59;;;;;;;14.87;5.60;;;-0.80;99.90;;;;;;4901334;29;20479;-78
2023/02/07 02:32:26;;;;;;;19.35;7.65;;;-0.70;99.90;;;;;;4916638;29;20076;-78
2023/02/07 02:34:53;;;;;;;15.88;6.25;;;-0.70;99.90;;;;;;4885126;29;20439;-79
2023/02/07 02:37:21;;;;;;;11.60;5.05;;;-0.80;99.90;;;;;;4914757;29;20357;-78
2023/02/07 02:39:47;;;;;;;15.35;6.20;;;-0.80;99.90;;;;;;4885156;29;20056;-79
2023/02/07 02:42:15;;;;;;;9.85;5.68;;;-0.80;99.90;;;;;;4885370;29;20053;-78
2023/02/07 02:44:44;;;;;;;13.45;5.90;;;-0.80;99.90;;;;;;4900497;29;20374;-79
2023/02/07 02:47:11;;;;;;;16.90;7.30;;;-0.90;99.90;;;;;;4916115;29;20395;-79
2023/02/07 02:49:37;;;;;;;10.63;6.05;;;-0.90;99.90;;;;;;4899856;29;20068;-79
2023/02/07 02:52:05;;;;;;;13.25;5.38;;;-0.90;99.90;;;;;;4900426;29;20080;-79
2023/02/07 02:54:33;;;;;;;11.25;5.05;;;-0.80;99.90;;;;;;4915995;29;20044;-79
2023/02/07 02:57:09;;;;;;;16.23;6.18;;;-0.80;99.90;;;;;;4915347;29;20475;-78
2023/02/07 02:59:37;;;;;;;12.25;5.32;;;-0.80;99.90;;;;;;4900223;29;20079;-78
2023/02/07 03:02:04;;;;;;;10.77;5.60;;;-0.70;99.90;;;;;;4915955;29;20041;-78
2023/02/07 03:04:31;;;;;;;13.02;5.93;;;-0.70;99.90;;;;;;4899299;29;20431;-79
2023/02/07 03:06:59;;;;;;;17.13;5.75;;;-0.80;99.90;;;;;;4884618;29;20040;-78
2023/02/07 03:09:28;;;;;;;18.95;5.78;;;-0.80;99.90;;;;;;4884225;29;20479;-79
2023/02/07 03:11:54;;;;;;;17.58;6.78;;;-0.80;99.90;;;;;;4900995;29;20404;-80
2023/02/07 03:14:21;;;;;;;15.50;6.50;;;-0.70;99.90;;;;;;4899859;29;20480;-79
2023/02/07 03:16:48;;;;;;;16.55;5.82;;;-0.70;99.90;;;;;;4900137;29;20416;-78
2023/02/07 03:19:15;;;;;;;23.15;8.95;;;-0.70;99.90;;;;;;4915657;29;20464;-80
2023/02/07 03:21:42;;;;;;;21.63;9.77;;;-0.80;99.90;;;;;;4899796;29;20048;-79
2023/02/07 03:24:08;;;;;;;26.77;10.20;;;-0.80;99.90;;;;;;4899193;29;20055;-79
2023/02/07 03:26:35;;;;;;;36.08;9.52;;;-0.90;99.90;;;;;;4899617;29;20487;-78
2023/02/07 03:29:03;;;;;;;37.95;10.98;;;-1.00;99.90;;;;;;4883745;29;20093;-79
2023/02/07 03:31:30;;;;;;;39.67;14.63;;;-1.00;99.90;;;;;;4899637;29;20238;-80
2023/02/07 03:33:57;;;;;;;52.10;14.85;;;-1.00;99.90;;;;;;4899663;29;20048;-79
2023/02/07 03:36:25;;;;;;;56.38;15.70;;;-1.00;99.90;;;;;;4898575;29;20147;-79
2023/02/07 03:38:51;;;;;;;33.78;13.05;;;-0.80;99.90;;;;;;4900352;29;20444;-79
2023/02/07 03:41:18;;;;;;;29.70;13.13;;;-0.60;99.90;;;;;;4900842;29;20515;-78
2023/02/07 03:43:45;;;;;;;27.33;12.15;;;-0.60;99.90;;;;;;4899946;29;20124;-79
2023/02/07 03:46:12;;;;;;;29.15;14.18;;;-0.50;99.90;;;;;;4900127;29;20051;-79
2023/02/07 03:48:38;;;;;;;35.58;14.93;;;-0.50;99.90;;;;;;4900049;29;20471;-79
2023/02/07 03:51:05;;;;;;;31.63;12.68;;;-0.40;99.90;;;;;;4899675;29;20475;-79
2023/02/07 03:53:32;;;;;;;23.92;10.60;;;-0.40;99.90;;;;;;4883923;29;20049;-79
2023/02/07 03:55:59;;;;;;;33.08;13.10;;;-0.40;99.90;;;;;;4898368;29;20144;-80
2023/02/07 03:58:25;;;;;;;27.02;11.98;;;-0.40;99.90;;;;;;4884086;29;20123;-81
2023/02/07 04:00:52;;;;;;;51.33;14.52;;;-0.40;99.90;;;;;;4899280;29;20049;-79
2023/02/07 04:03:19;;;;;;;50.20;14.45;;;-0.40;99.90;;;;;;4898500;29;20044;-79
2023/02/07 04:05:48;;;;;;;42.08;12.43;;;-0.50;99.90;;;;;;4898955;29;20048;-78
2023/02/07 04:08:15;;;;;;;51.60;14.75;;;-0.50;99.90;;;;;;4900137;29;20107;-78
2023/02/07 04:10:41;;;;;;;23.50;12.05;;;-0.50;99.90;;;;;;4898401;29;20112;-79
2023/02/07 04:13:08;;;;;;;37.63;13.23;;;-0.60;99.90;;;;;;4900012;29;20044;-79
2023/02/07 04:15:35;;;;;;;21.38;10.90;;;-0.60;99.90;;;;;;4898815;29;20096;-79
2023/02/07 04:18:03;;;;;;;28.33;12.00;;;-0.70;99.90;;;;;;4898178;29;20056;-78
2023/02/07 04:20:30;;;;;;;26.48;10.90;;;-0.70;99.90;;;;;;4915016;29;20091;-79
2023/02/07 04:22:57;;;;;;;23.48;12.55;;;-0.80;99.90;;;;;;4899026;29;20083;-80
2023/02/07 04:25:24;;;;;;;21.27;11.85;;;-0.80;99.90;;;;;;4914319;29;20052;-79
2023/02/07 04:27:51;;;;;;;20.35;11.07;;;-0.90;99.90;;;;;;4914497;29;20053;-79
2023/02/07 04:30:18;;;;;;;24.77;10.50;;;-0.90;99.90;;;;;;4899002;29;20040;-80
2023/02/07 04:32:45;;;;;;;24.23;12.10;;;-1.00;99.90;;;;;;4899734;29;20052;-81
2023/02/07 04:35:12;;;;;;;24.13;12.02;;;-0.90;99.90;;;;;;4914336;29;20045;-79
2023/02/07 04:37:39;;;;;;;22.42;11.30;;;-0.90;99.90;;;;;;4897916;29;20056;-80
2023/02/07 04:40:06;;;;;;;21.73;12.15;;;-1.00;99.90;;;;;;4914234;29;20108;-79
2023/02/07 04:42:33;;;;;;;27.45;13.40;;;-1.00;99.90;;;;;;4898875;29;20934;-80
2023/02/07 04:44:59;;;;;;;21.77;10.98;;;-1.10;99.90;;;;;;4914097;29;20063;-78
2023/02/07 04:47:27;;;;;;;24.08;11.93;;;-1.10;99.90;;;;;;4899527;29;20110;-79
2023/02/07 04:49:54;;;;;;;19.90;11.52;;;-1.10;99.90;;;;;;4898849;29;20036;-79
2023/02/07 04:52:21;;;;;;;22.50;12.93;;;-1.10;99.90;;;;;;4900069;29;20055;-79
2023/02/07 04:54:47;;;;;;;23.90;12.35;;;-1.20;99.90;;;;;;4899317;29;20404;-80
2023/02/07 04:57:14;;;;;;;21.23;10.77;;;-1.20;99.90;;;;;;4913913;29;20045;-80
2023/02/07 04:59:41;;;;;;;21.10;11.70;;;-1.20;99.90;;;;;;4900016;29;20064;-79
2023/02/07 05:02:08;;;;;;;21.48;10.13;;;-1.30;99.90;;;;;;4903424;29;20060;-78
2023/02/07 05:04:35;;;;;;;21.45;11.70;;;-1.30;99.90;;;;;;4917185;29;20123;-79
2023/02/07 05:07:03;;;;;;;21.80;11.73;;;-1.30;99.90;;;;;;4917999;29;20484;-79
2023/02/07 05:09:29;;;;;;;21.27;10.48;;;-1.40;99.90;;;;;;4917284;29;20056;-79
2023/02/07 05:11:56;;;;;;;20.92;10.85;;;-1.40;99.90;;;;;;4917935;29;20385;-79
2023/02/07 05:14:23;;;;;;;20.70;11.57;;;-1.40;99.90;;;;;;4917807;29;20064;-79
2023/02/07 05:16:50;;;;;;;20.38;11.40;;;-1.40;99.90;;;;;;4902578;29;20037;-78
2023/02/07 05:19:17;;;;;;;20.77;11.48;;;-1.40;99.90;;;;;;4918185;29;20419;-78
2023/02/07 05:21:44;;;;;;;28.83;11.40;;;-1.40;99.90;;;;;;4902575;29;20049;-79
2023/02/07 05:24:11;;;;;;;20.52;10.80;;;-1.50;99.90;;;;;;4916971;29;20045;-78
2023/02/07 05:26:38;;;;;;;22.73;10.93;;;-1.50;99.90;;;;;;4903160;29;20401;-78
2023/02/07 05:29:06;;;;;;;16.38;10.43;;;-1.50;99.90;;;;;;4901555;29;20047;-78
2023/02/07 05:34:18;;;;;;;17.48;10.05;;;-1.60;99.90;;;;;;4903384;29;20136;-79
2023/02/07 05:36:46;;;;;;;20.48;11.05;;;-1.60;99.90;;;;;;4902283;29;20436;-79
2023/02/07 05:39:13;;;;;;;20.05;10.93;;;-1.60;99.90;;;;;;4902783;29;20084;-80
2023/02/07 05:41:39;;;;;;;19.10;10.98;;;-1.60;99.90;;;;;;4903006;29;20432;-79
2023/02/07 05:44:06;;;;;;;16.88;9.10;;;-1.60;99.90;;;;;;4902041;29;20369;-80
2023/02/07 05:46:33;;;;;;;17.27;10.88;;;-1.70;99.90;;;;;;4901935;29;20494;-78
2023/02/07 05:49:00;;;;;;;18.40;11.15;;;-1.60;99.90;;;;;;4902183;29;20334;-80
2023/02/07 05:51:26;;;;;;;20.50;11.65;;;-1.70;99.90;;;;;;4902956;29;20071;-78
2023/02/07 05:53:53;;;;;;;19.63;9.48;;;-1.60;99.90;;;;;;4901981;29;20072;-79
2023/02/07 05:56:20;;;;;;;17.40;9.88;;;-1.60;99.90;;;;;;4901190;29;20040;-78
2023/02/07 05:58:47;;;;;;;27.40;10.52;;;-1.70;99.90;;;;;;4902863;29;20044;-79
2023/02/07 06:01:13;;;;;;;16.17;9.98;;;-1.70;99.90;;;;;;4886398;29;20044;-78
2023/02/07 06:03:41;;;;;;;21.10;9.98;;;-1.70;99.90;;;;;;4901355;29;20064;-78
2023/02/07 06:06:08;;;;;;;20.95;10.75;;;-1.80;99.90;;;;;;4902616;29;20136;-79
2023/02/07 06:08:35;;;;;;;19.63;9.40;;;-1.80;99.90;;;;;;4917277;29;20084;-78
2023/02/07 06:11:02;;;;;;;21.55;11.68;;;-1.80;99.90;;;;;;4885199;29;20052;-79
2023/02/07 06:13:28;;;;;;;18.40;10.63;;;-1.80;99.90;;;;;;4901647;29;20468;-79
2023/02/07 06:15:55;;;;;;;18.50;9.93;;;-1.80;99.90;;;;;;4901535;29;20440;-78
2023/02/07 06:18:23;;;;;;;17.75;8.82;;;-1.80;99.90;;;;;;4901513;29;20056;-79
2023/02/07 06:20:50;;;;;;;17.08;9.55;;;-1.90;99.90;;;;;;4917391;29;20123;-79
2023/02/07 06:23:18;;;;;;;21.90;9.93;;;-1.90;99.90;;;;;;4916330;29;20057;-79
2023/02/07 06:25:44;;;;;;;21.30;9.90;;;-1.90;99.90;;;;;;4902169;29;20041;-79
2023/02/07 06:28:13;;;;;;;22.75;12.35;;;-1.80;99.90;;;;;;4916966;29;20049;-79
2023/02/07 06:30:40;;;;;;;17.13;9.27;;;-1.80;99.90;;;;;;4901786;29;20036;-78
2023/02/07 06:33:07;;;;;;;19.20;9.10;;;-1.90;99.90;;;;;;4902244;29;20044;-80
2023/02/07 06:35:33;;;;;;;20.48;9.38;;;-1.90;99.90;;;;;;4901957;29;20376;-79
2023/02/07 06:38:00;;;;;;;20.23;9.65;;;-1.90;99.90;;;;;;4901316;29;20049;-78
2023/02/07 06:40:27;;;;;;;16.67;8.85;;;-1.90;99.90;;;;;;4916713;29;20502;-79
2023/02/07 06:42:54;;;;;;;19.30;9.93;;;-2.00;99.90;;;;;;4901243;29;20056;-79
2023/02/07 06:45:21;;;;;;;19.55;9.75;;;-2.00;99.90;;;;;;4916596;29;20104;-80
2023/02/07 06:47:47;;;;;;;20.17;9.38;;;-2.00;99.90;;;;;;4901891;29;20055;-80
2023/02/07 06:50:14;;;;;;;14.60;8.85;;;-1.90;99.90;;;;;;4901301;29;20047;-80
2023/02/07 06:52:41;;;;;;;23.15;11.18;;;-1.90;99.90;;;;;;4902114;29;20423;-79
2023/02/07 06:55:08;;;;;;;19.02;8.20;;;-1.90;99.90;;;;;;4900941;29;20050;-79
2023/02/07 06:57:38;;;;;;;14.63;8.85;;;-1.90;99.90;;;;;;4915977;29;20058;-79
2023/02/07 07:00:04;;;;;;;16.13;9.30;;;-1.80;99.90;;;;;;4901799;29;20045;-80
2023/02/07 07:02:31;;;;;;;19.17;9.27;;;-1.80;99.90;;;;;;4900899;29;20048;-80
2023/02/07 07:04:58;;;;;;;18.73;9.60;;;-1.90;99.90;;;;;;4901516;29;20036;-79
2023/02/07 07:07:25;;;;;;;18.00;9.15;;;-1.90;99.90;;;;;;4901886;29;20412;-79
2023/02/07 07:09:51;;;;;;;17.52;9.43;;;-2.00;99.90;;;;;;4900758;29;20429;-78
2023/02/07 07:12:18;;;;;;;23.52;11.15;;;-2.00;99.90;;;;;;4901462;29;20154;-79
2023/02/07 07:14:45;;;;;;;16.85;8.75;;;-2.10;99.90;;;;;;4901252;29;20123;-78
2023/02/07 07:17:14;;;;;;;16.65;9.43;;;-2.10;99.90;;;;;;4900513;29;20043;-79
2023/02/07 07:19:40;;;;;;;16.53;9.93;;;-2.10;99.90;;;;;;4901409;29;20096;-80
2023/02/07 07:22:07;;;;;;;19.65;9.10;;;-2.10;99.90;;;;;;4900610;29;20159;-79
2023/02/07 07:24:34;;;;;;;14.45;9.32;;;-2.10;99.90;;;;;;4900070;29;20044;-78
2023/02/07 07:29:46;;;;;;;22.30;9.02;;;-2.10;99.90;;;;;;4900630;29;20077;-79
2023/02/07 07:32:14;;;;;;;18.60;8.38;;;-2.00;99.90;;;;;;4901005;29;20477;-78
2023/02/07 07:34:59;;;;;;;16.10;9.05;;;-2.10;99.90;;;;;;4901004;29;20052;-78
2023/02/07 07:37:25;;;;;;;18.77;9.60;;;-2.10;99.90;;;;;;4900344;29;20052;-78
2023/02/07 07:39:52;;;;;;;19.15;8.27;;;-2.20;99.90;;;;;;4915457;29;20396;-78
2023/02/07 07:42:19;;;;;;;15.93;7.85;;;-2.20;99.90;;;;;;4900413;29;20045;-78
2023/02/07 07:44:59;;;;;;;16.63;8.95;;;-2.20;99.90;;;;;;4913909;29;20102;-77
2023/02/07 07:47:28;;;;;;;14.93;9.45;;;-2.20;99.90;;;;;;4899597;29;20044;-77
2023/02/07 07:49:54;;;;;;;15.40;8.60;;;-2.20;99.90;;;;;;4914590;29;20531;-78
2023/02/07 07:52:21;;;;;;;16.77;7.90;;;-2.20;99.90;;;;;;4915083;29;20384;-81
2023/02/07 07:54:48;;;;;;;18.40;8.68;;;-2.20;99.90;;;;;;4915057;29;20345;-79
2023/02/07 08:00:00;;;;;;;14.88;9.25;;;-2.10;99.90;;;;;;4904583;29;20416;-78
2023/02/07 08:02:27;;;;;;;19.17;8.95;;;-2.00;99.90;;;;;;4899255;29;20139;-78
2023/02/07 08:04:54;;;;;;;14.35;8.32;;;-1.90;99.90;;;;;;4901977;29;20116;-79
2023/02/07 08:07:20;;;;;;;18.45;9.07;;;-1.90;99.90;;;;;;4919963;29;20041;-78
2023/02/07 08:09:47;;;;;;;16.83;9.02;;;-1.90;99.90;;;;;;4907033;29;20076;-77
2023/02/07 08:12:14;;;;;;;16.67;9.73;;;-1.80;99.90;;;;;;4899222;29;20072;-79
2023/02/07 08:14:41;;;;;;;14.80;8.32;;;-1.70;99.90;;;;;;4928681;29;20090;-80
2023/02/07 08:17:08;;;;;;;17.05;8.40;;;-1.60;99.90;;;;;;4916004;29;20431;-78
2023/02/07 08:19:37;;;;;;;18.92;8.48;;;-1.60;99.90;;;;;;4910716;29;20044;-78
2023/02/07 08:22:04;;;;;;;22.60;9.13;;;-1.60;99.90;;;;;;4932002;29;20108;-78
2023/02/07 08:24:31;;;;;;;20.15;11.07;;;-1.50;99.90;;;;;;4919428;29;20107;-78
2023/02/07 08:26:58;;;;;;;17.98;8.75;;;-1.40;99.90;;;;;;4919247;29;20062;-79
2023/02/07 08:29:25;;;;;;;19.40;9.07;;;-1.30;99.90;;;;;;4918101;29;20050;-78
2023/02/07 08:31:52;;;;;;;18.08;8.68;;;-1.10;99.90;;;;;;4918816;29;20064;-78
2023/02/07 08:34:23;;;;;;;15.50;8.10;;;-1.00;99.90;;;;;;4917751;29;20040;-78
2023/02/07 08:36:51;;;;;;;20.08;9.23;;;-1.00;99.90;;;;;;4918146;29;20044;-78
2023/02/07 08:39:18;;;;;;;18.70;9.20;;;-0.90;99.90;;;;;;4919086;29;20052;-78
2023/02/07 08:41:45;;;;;;;21.27;9.32;;;-0.90;99.90;;;;;;4925265;29;20291;-79
2023/02/07 08:44:12;;;;;;;18.70;10.35;;;-0.90;99.90;;;;;;4898603;29;20044;-79
2023/02/07 08:46:41;;;;;;;19.75;9.23;;;-0.90;99.90;;;;;;4914152;29;20043;-79
2023/02/07 08:49:08;;;;;;;19.83;10.85;;;-0.80;99.90;;;;;;4904315;29;20051;-78
2023/02/07 08:51:34;;;;;;;28.02;11.43;;;-0.70;99.90;;;;;;4899527;29;20115;-79
2023/02/07 08:54:01;;;;;;;22.05;11.68;;;-0.70;99.90;;;;;;4909297;29;20046;-78
2023/02/07 08:56:29;;;;;;;25.35;11.63;;;-0.60;99.90;;;;;;4897616;29;20084;-79
2023/02/07 08:58:56;;;;;;;29.17;12.50;;;-0.50;99.90;;;;;;4910615;29;20068;-78
2023/02/07 09:01:23;;;;;;;19.92;11.90;;;-0.50;99.90;;;;;;4917215;29;20480;-78
2023/02/07 09:03:49;;;;;;;23.67;12.18;;;-0.40;99.90;;;;;;4907919;29;20072;-77
2023/02/07 09:06:16;;;;;;;21.13;10.73;;;-0.30;99.90;;;;;;4916854;29;20052;-77
2023/02/07 09:08:43;;;;;;;17.05;10.27;;;-0.20;99.90;;;;;;4917672;29;20111;-77
2023/02/07 09:11:10;;;;;;;22.70;11.35;;;-0.20;99.90;;;;;;4916450;29;20055;-77
2023/02/07 09:13:37;;;;;;;23.83;12.20;;;-0.20;99.90;;;;;;4918260;29;20436;-77
2023/02/07 09:16:04;;;;;;;24.40;12.15;;;-0.20;99.90;;;;;;4908310;29;20045;-78
2023/02/07 09:18:33;;;;;;;23.35;12.70;;;-0.20;99.90;;;;;;4899278;29;20076;-77
2023/02/07 09:21:00;;;;;;;27.08;14.30;;;0.00;99.90;;;;;;4899119;29;20052;-77
2023/02/07 09:23:27;;;;;;;24.98;14.40;;;0.10;99.90;;;;;;4898597;29;20123;-78
2023/02/07 09:25:53;;;;;;;25.42;15.30;;;0.30;99.90;;;;;;4898743;29;20080;-78
2023/02/07 09:28:23;;;;;;;31.52;14.15;;;0.50;99.90;;;;;;4880682;29;20377;-77
2023/02/07 09:30:50;;;;;;;26.80;13.50;;;0.60;99.90;;;;;;4905370;29;20048;-77
2023/02/07 09:33:18;;;;;;;33.53;16.13;;;0.70;99.90;;;;;;4917963;29;20036;-77
2023/02/07 09:35:48;;;;;;;29.50;15.68;;;0.90;99.90;;;;;;4893488;29;20071;-80
2023/02/07 09:38:15;;;;;;;35.42;18.02;;;1.00;99.90;;;;;;4898988;29;20108;-79
2023/02/07 09:40:42;;;;;;;42.83;21.17;;;1.10;99.90;;;;;;4895585;29;20472;-81
2023/02/07 09:43:09;;;;;;;33.88;20.02;;;1.20;99.90;;;;;;4897130;29;20041;-79
2023/02/07 09:45:36;;;;;;;39.53;19.40;;;1.20;99.90;;;;;;4892697;29;20040;-78
2023/02/07 09:48:04;;;;;;;42.38;19.58;;;1.30;99.90;;;;;;4913528;29;20360;-78
2023/02/07 09:50:31;;;;;;;30.65;18.35;;;1.40;99.90;;;;;;4904776;29;20040;-78
2023/02/07 09:52:57;;;;;;;33.47;17.67;;;1.60;99.90;;;;;;4921064;29;20051;-77
2023/02/07 09:55:24;;;;;;;38.83;20.25;;;1.70;99.90;;;;;;4912949;29;20048;-78
2023/02/07 09:57:51;;;;;;;36.42;17.73;;;1.80;99.90;;;;;;4915518;29;20386;-78
2023/02/07 10:00:18;;;;;;;34.53;18.20;;;1.90;99.90;;;;;;4936161;29;20060;-79
2023/02/07 10:02:45;;;;;;;30.38;17.02;;;2.00;99.90;;;;;;4920697;29;20164;-78
2023/02/07 10:05:11;;;;;;;32.08;14.85;;;2.20;99.90;;;;;;4920766;29;20470;-77
2023/02/07 10:07:38;;;;;;;30.77;16.10;;;2.30;99.90;;;;;;4920341;29;20076;-77
2023/02/07 10:10:06;;;;;;;30.50;16.05;;;2.30;99.90;;;;;;4920101;29;20048;-78
2023/02/07 10:12:32;;;;;;;38.63;17.02;;;2.30;99.90;;;;;;4920941;29;20044;-79
2023/02/07 10:14:59;;;;;;;44.85;16.00;;;2.40;99.90;;;;;;4921241;29;20040;-78
2023/02/07 10:17:26;;;;;;;38.83;17.70;;;2.50;99.90;;;;;;4919026;29;20111;-78
2023/02/07 10:19:57;;;;;;;34.80;18.08;;;2.70;99.90;;;;;;4892901;29;20049;-77
2023/02/07 10:22:24;;;;;;;41.92;21.00;;;2.80;99.90;;;;;;4884775;29;20124;-77
2023/02/07 10:24:51;;;;;;;41.70;21.25;;;2.90;99.90;;;;;;4901562;29;20048;-77
2023/02/07 10:27:20;;;;;;;42.25;19.92;;;2.90;99.90;;;;;;4901406;29;20036;-77
2023/02/07 10:29:46;;;;;;;53.20;21.60;;;3.00;99.90;;;;;;4900923;29;20044;-77
2023/02/07 10:32:13;;;;;;;43.00;21.65;;;3.00;99.90;;;;;;4901735;29;20044;-77
2023/02/07 10:34:40;;;;;;;43.35;19.45;;;3.20;99.90;;;;;;4901579;29;20048;-77
2023/02/07 10:37:07;;;;;;;34.72;20.02;;;3.20;99.90;;;;;;4899932;29;20052;-77
2023/02/07 10:39:33;;;;;;;39.88;22.63;;;3.30;99.90;;;;;;4901712;29;20064;-77
2023/02/07 10:42:00;;;;;;;33.30;19.88;;;3.50;99.90;;;;;;4901823;29;20049;-77
2023/02/07 10:44:30;;;;;;;33.72;20.58;;;3.50;99.90;;;;;;4900810;29;20041;-77
2023/02/07 10:46:57;;;;;;;38.30;19.25;;;3.60;99.90;;;;;;4901694;29;20044;-77
2023/02/07 10:49:23;;;;;;;35.83;20.55;;;3.70;99.90;;;;;;4900633;29;20096;-77
2023/02/07 10:51:51;;;;;;;41.05;22.38;;;3.90;99.90;;;;;;4902018;29;20040;-77
2023/02/07 10:54:23;;;;;;;30.23;19.03;;;4.10;99.90;;;;;;4901161;29;20045;-77
2023/02/07 10:56:50;;;;;;;30.15;17.13;;;4.50;99.90;;;;;;4910228;29;20055;-77
2023/02/07 10:59:16;;;;;;;25.92;18.05;;;4.90;99.90;;;;;;4920033;29;20055;-78
2023/02/07 11:01:43;;;;;;;26.83;17.02;;;5.20;99.90;;;;;;4920341;29;20511;-78
2023/02/07 11:04:10;;;;;;;27.10;18.92;;;5.60;99.90;;;;;;4917829;29;20036;-78
2023/02/07 11:06:38;;;;;;;31.05;19.00;;;5.90;99.90;;;;;;4920100;29;20139;-78
2023/02/07 11:09:05;;;;;;;30.42;18.80;;;6.50;99.90;;;;;;4904028;29;20384;-78
2023/02/07 11:11:32;;;;;;;29.25;18.33;;;6.90;99.90;;;;;;4917517;29;20123;-77
2023/02/07 11:13:58;;;;;;;31.63;18.73;;;7.20;99.90;;;;;;4919931;29;20036;-77
2023/02/07 11:16:25;;;;;;;27.67;16.92;;;7.50;99.90;;;;;;4913832;29;20044;-78
2023/02/07 11:18:52;;;;;;;31.35;17.42;;;7.80;99.90;;;;;;4911532;29;20091;-79
2023/02/07 11:21:19;;;;;;;26.65;16.02;;;8.10;99.90;;;;;;4901374;29;20049;-78
2023/02/07 11:23:45;;;;;;;32.03;16.80;;;8.40;99.90;;;;;;4897429;29;20386;-77
2023/02/07 11:26:12;;;;;;;26.65;14.57;;;8.50;99.90;;;;;;4900382;29;20060;-78
2023/02/07 11:28:40;;;;;;;26.55;15.23;;;8.80;99.90;;;;;;4901194;29;20045;-78
2023/02/07 11:31:07;;;;;;;26.20;14.93;;;9.20;99.90;;;;;;4900016;29;20435;-79
2023/02/07 11:33:35;;;;;;;27.00;15.25;;;9.30;99.90;;;;;;4901454;29;20495;-78
2023/02/07 11:36:01;;;;;;;27.05;14.80;;;9.60;99.90;;;;;;4907577;29;20115;-77
2023/02/07 11:38:29;;;;;;;26.48;15.65;;;9.70;99.90;;;;;;4906085;29;20438;-78
2023/02/07 11:40:56;;;;;;;27.80;16.38;;;10.00;99.90;;;;;;4914110;29;20044;-78
2023/02/07 11:43:23;;;;;;;26.90;15.82;;;10.20;99.90;;;;;;4917858;29;20048;-78
2023/02/07 11:45:50;;;;;;;25.70;14.57;;;10.30;99.90;;;;;;4919444;29;20048;-78
2023/02/07 11:48:17;;;;;;;27.58;15.93;;;10.40;99.90;;;;;;4919635;29;20040;-80
2023/02/07 11:50:45;;;;;;;25.02;15.98;;;10.60;99.90;;;;;;4913674;29;20104;-80
2023/02/07 11:53:11;;;;;;;30.33;13.95;;;10.70;99.90;;;;;;4913984;29;20041;-78
2023/02/07 11:55:38;;;;;;;34.92;14.90;;;10.90;99.90;;;;;;4916440;29;20153;-79
2023/02/07 11:58:06;;;;;;;23.95;10.90;;;11.20;99.90;;;;;;4919251;29;20044;-79
2023/02/07 12:00:32;;;;;;;23.45;11.82;;;11.50;99.90;;;;;;4919523;29;20396;-79
2023/02/07 12:02:59;;;;;;;19.08;9.25;;;11.80;99.90;;;;;;4918448;29;20048;-79
2023/02/07 12:05:26;;;;;;;16.98;8.98;;;11.80;99.90;;;;;;4903127;29;20132;-80
2023/02/07 12:07:53;;;;;;;18.13;9.23;;;11.80;99.90;;;;;;4900083;29;20123;-81
2023/02/07 12:10:21;;;;;;;19.17;8.30;;;11.30;99.90;;;;;;4914103;29;20047;-80
2023/02/07 12:18:18;;;;;;;12.88;5.70;;;9.10;99.90;;;;;;4869548;29;20409;-79
2023/02/07 12:20:44;;;;;;;16.08;5.90;;;8.70;99.90;;;;;;4886595;29;20641;-79
2023/02/07 12:23:11;;;;;;;19.92;6.07;;;8.40;99.90;;;;;;4895124;29;20057;-79
2023/02/07 12:25:58;;;;;;;12.77;5.75;;;8.20;99.90;;;;;;4880138;29;20044;-79
2023/02/07 12:28:24;;;;;;;16.65;5.68;;;8.00;99.90;;;;;;4878137;29;20471;-78
2023/02/07 12:30:51;;;;;;;21.00;6.05;;;7.90;99.90;;;;;;4879157;29;20044;-78
2023/02/07 12:33:18;;;;;;;19.35;7.30;;;7.80;99.90;;;;;;4895055;29;20459;-77
2023/02/07 12:35:44;;;;;;;21.92;9.05;;;7.60;99.90;;;;;;4878478;29;20467;-81
2023/02/07 12:38:23;;;;;;;17.98;7.82;;;7.60;99.90;;;;;;4894674;29;20049;-81
2023/02/07 12:40:49;;;;;;;15.45;6.78;;;7.60;99.90;;;;;;4879334;29;20040;-84
2023/02/07 12:43:16;;;;;;;13.52;5.60;;;7.50;99.90;;;;;;4880409;29;20395;-82
2023/02/07 12:45:45;;;;;;;14.90;7.00;;;7.50;99.90;;;;;;4895013;29;20081;-82
2023/02/07 12:48:13;;;;;;;13.38;7.28;;;7.40;99.90;;;;;;4893753;29;20045;-82
2023/02/07 12:50:40;;;;;;;19.08;7.35;;;7.40;99.90;;;;;;4885195;29;20547;-82
2023/02/07 12:53:07;;;;;;;17.48;6.93;;;7.30;99.90;;;;;;4897259;29;20503;-81
2023/02/07 12:55:34;;;;;;;18.15;6.85;;;7.40;99.90;;;;;;4895130;29;20041;-81
2023/02/07 12:58:00;;;;;;;12.57;6.07;;;7.50;99.90;;;;;;4894491;29;20049;-83